Time;durP1;ratioP1;P1;durP2;ratioP2;P2;SDS_P1;SDS_P2;PMS_P1;PMS_P2;Temp;Humidity;BMP_temperature;BMP_pressure;BME280_temperature;BME280_humidity;BME280_pressure;Samples;Min_cycle;Max_cycle;Signal;HPM_P1;HPM_P2
2022/03/03 00:01:32;;;;;;;57.10;26.60;;;2.50;99.90;;;;;;5048930;28;20092;-67
2022/03/03 00:04:55;;;;;;;61.72;26.75;;;2.50;99.90;;;;;;5051403;28;20568;-67
2022/03/03 00:11:19;;;;;;;58.05;24.35;;;2.50;99.90;;;;;;4875926;28;20384;-67
2022/03/03 00:17:38;;;;;;;52.17;24.05;;;2.40;99.90;;;;;;4907159;29;20047;-72
2022/03/03 00:20:05;;;;;;;58.40;25.23;;;2.30;99.90;;;;;;4836381;29;20475;-71
2022/03/03 00:22:36;;;;;;;61.05;27.98;;;2.30;99.90;;;;;;4995364;28;20406;-71
2022/03/03 00:25:08;;;;;;;59.67;26.45;;;2.30;99.90;;;;;;5047935;28;20045;-71
2022/03/03 00:27:37;;;;;;;60.80;27.17;;;2.30;99.90;;;;;;5033414;28;21624;-72
2022/03/03 00:30:03;;;;;;;68.85;26.80;;;2.30;99.90;;;;;;4907971;28;20273;-71
2022/03/03 00:32:37;;;;;;;64.93;26.90;;;2.20;99.90;;;;;;5025340;28;20080;-71
2022/03/03 00:35:03;;;;;;;58.30;25.85;;;2.20;99.90;;;;;;5015580;28;20143;-71
2022/03/03 00:37:29;;;;;;;63.93;27.63;;;2.20;99.90;;;;;;5032310;28;20052;-70
2022/03/03 00:39:54;;;;;;;56.07;26.23;;;2.20;99.90;;;;;;5028077;28;20037;-71
2022/03/03 00:42:20;;;;;;;60.33;28.30;;;2.20;99.90;;;;;;5035838;28;20393;-71
2022/03/03 00:44:46;;;;;;;62.10;24.33;;;2.10;99.90;;;;;;5021466;28;20571;-71
2022/03/03 00:47:11;;;;;;;59.70;26.53;;;2.10;99.90;;;;;;5034103;28;20103;-71
2022/03/03 00:49:37;;;;;;;64.20;27.13;;;2.20;99.90;;;;;;5030578;28;20095;-71
2022/03/03 00:52:02;;;;;;;61.80;27.30;;;2.10;99.90;;;;;;5040750;28;20057;-71
2022/03/03 00:54:28;;;;;;;66.17;25.67;;;2.10;99.90;;;;;;5026505;28;20307;-71
2022/03/03 00:56:54;;;;;;;67.33;25.43;;;2.10;99.90;;;;;;5034199;28;20053;-70
2022/03/03 00:59:19;;;;;;;59.70;24.97;;;2.00;99.90;;;;;;5024854;28;20041;-72
2022/03/03 01:01:45;;;;;;;59.80;26.20;;;2.10;99.90;;;;;;5024524;28;20037;-71
2022/03/03 01:04:10;;;;;;;64.20;26.60;;;2.00;99.90;;;;;;5021674;28;20071;-71
2022/03/03 01:06:36;;;;;;;56.53;26.33;;;2.00;99.90;;;;;;5029017;28;20515;-71
2022/03/03 01:09:02;;;;;;;60.57;25.13;;;2.00;99.90;;;;;;5033098;28;20044;-71
2022/03/03 01:11:27;;;;;;;66.07;26.90;;;1.90;99.90;;;;;;5035864;28;20060;-71
2022/03/03 01:13:53;;;;;;;57.87;24.10;;;1.90;99.90;;;;;;5032623;28;20049;-70
2022/03/03 01:16:19;;;;;;;60.13;25.37;;;1.90;99.90;;;;;;5033139;28;20147;-70
2022/03/03 01:18:44;;;;;;;59.37;25.23;;;1.90;99.90;;;;;;5032919;28;20084;-71
2022/03/03 01:21:10;;;;;;;55.17;24.60;;;1.90;99.90;;;;;;5026612;28;20470;-70
2022/03/03 01:23:35;;;;;;;63.10;27.93;;;1.80;99.90;;;;;;5036894;28;20045;-71
2022/03/03 01:26:01;;;;;;;57.53;24.43;;;1.80;99.90;;;;;;5032013;28;20476;-71
2022/03/03 01:28:26;;;;;;;63.93;26.97;;;1.80;99.90;;;;;;5036040;28;20116;-71
2022/03/03 01:30:52;;;;;;;64.63;26.00;;;1.80;99.90;;;;;;5042567;28;20102;-70
2022/03/03 01:33:18;;;;;;;62.20;27.13;;;1.70;99.90;;;;;;5034642;28;20456;-70
2022/03/03 01:35:43;;;;;;;62.57;28.30;;;1.80;99.90;;;;;;5039659;28;20053;-71
2022/03/03 01:38:09;;;;;;;66.87;27.67;;;1.80;99.90;;;;;;5038890;28;20033;-71
2022/03/03 01:40:35;;;;;;;60.63;26.33;;;1.70;99.90;;;;;;5039381;28;20406;-70
2022/03/03 01:43:01;;;;;;;59.10;25.90;;;1.70;99.90;;;;;;5026477;28;20258;-71
2022/03/03 01:45:26;;;;;;;67.77;27.63;;;1.70;99.90;;;;;;5035518;28;20311;-70
2022/03/03 01:47:52;;;;;;;67.77;27.00;;;1.70;99.90;;;;;;5037538;28;20144;-70
2022/03/03 01:50:18;;;;;;;62.33;26.47;;;1.70;99.90;;;;;;5037382;28;20041;-70
2022/03/03 01:52:43;;;;;;;63.07;26.73;;;1.60;99.90;;;;;;5040373;28;20075;-70
2022/03/03 01:55:10;;;;;;;53.27;25.07;;;1.60;99.90;;;;;;5039561;28;20498;-71
2022/03/03 01:57:36;;;;;;;66.25;27.08;;;1.60;99.90;;;;;;5027758;28;20042;-70
2022/03/03 02:00:05;;;;;;;59.90;26.67;;;1.60;99.90;;;;;;5039548;28;20078;-71
2022/03/03 02:02:31;;;;;;;57.50;27.10;;;1.60;99.90;;;;;;5037568;28;20307;-70
2022/03/03 02:04:56;;;;;;;57.10;26.67;;;1.60;99.90;;;;;;5042979;28;20037;-70
2022/03/03 02:07:22;;;;;;;58.13;25.07;;;1.60;99.90;;;;;;5042731;28;20698;-70
2022/03/03 02:09:47;;;;;;;61.93;24.60;;;1.50;99.90;;;;;;5039860;28;20041;-70
2022/03/03 02:12:13;;;;;;;62.73;26.17;;;1.50;99.90;;;;;;5046469;28;20049;-70
2022/03/03 02:14:41;;;;;;;61.57;26.07;;;1.50;99.90;;;;;;5039547;28;20033;-70
2022/03/03 02:17:07;;;;;;;60.65;26.63;;;1.50;99.90;;;;;;5043456;28;20075;-70
2022/03/03 02:19:32;;;;;;;59.20;25.97;;;1.50;99.90;;;;;;5037016;28;20091;-70
2022/03/03 02:21:58;;;;;;;58.97;25.87;;;1.50;99.90;;;;;;5035946;28;20378;-71
2022/03/03 02:24:23;;;;;;;56.80;24.97;;;1.50;99.90;;;;;;5039203;28;20033;-70
2022/03/03 02:26:49;;;;;;;63.50;25.87;;;1.50;99.90;;;;;;5037629;28;20044;-70
2022/03/03 02:29:15;;;;;;;54.03;27.07;;;1.40;99.90;;;;;;5030906;28;20037;-70
2022/03/03 02:31:41;;;;;;;62.38;28.08;;;1.40;99.90;;;;;;5039416;28;20063;-70
2022/03/03 02:34:07;;;;;;;59.73;24.63;;;1.40;99.90;;;;;;5035934;28;20534;-70
2022/03/03 02:36:33;;;;;;;63.63;27.23;;;1.50;99.90;;;;;;5034764;28;20401;-70
2022/03/03 02:39:00;;;;;;;62.43;28.30;;;1.40;99.90;;;;;;5028856;28;20498;-70
2022/03/03 02:41:27;;;;;;;61.00;26.63;;;1.40;99.90;;;;;;5017750;28;20033;-70
2022/03/03 02:43:54;;;;;;;68.70;27.52;;;1.40;99.90;;;;;;5037287;28;20049;-70
2022/03/03 02:46:20;;;;;;;58.88;24.88;;;1.30;99.90;;;;;;5036490;28;20041;-70
2022/03/03 02:48:46;;;;;;;56.00;26.88;;;1.30;99.90;;;;;;5023342;28;20079;-70
2022/03/03 02:51:12;;;;;;;70.60;26.73;;;1.30;99.90;;;;;;5043714;28;20037;-70
2022/03/03 02:53:38;;;;;;;62.45;26.75;;;1.30;99.90;;;;;;5044799;28;20037;-71
2022/03/03 02:56:07;;;;;;;67.13;26.77;;;1.30;99.90;;;;;;5034507;28;20096;-70
2022/03/03 02:58:34;;;;;;;57.25;25.65;;;1.30;99.90;;;;;;5024782;28;20049;-70
2022/03/03 03:01:01;;;;;;;61.45;27.48;;;1.30;99.90;;;;;;5035465;28;20048;-70
2022/03/03 03:03:27;;;;;;;64.50;26.38;;;1.30;99.90;;;;;;5045780;28;20556;-70
2022/03/03 03:05:53;;;;;;;66.27;28.30;;;1.30;99.90;;;;;;5043748;28;20095;-71
2022/03/03 03:08:18;;;;;;;54.57;25.43;;;1.20;99.90;;;;;;5040340;28;20407;-70
2022/03/03 03:10:44;;;;;;;60.13;25.83;;;1.20;99.90;;;;;;5044384;28;20041;-70
2022/03/03 03:13:14;;;;;;;66.50;25.40;;;1.20;99.90;;;;;;5040953;28;20036;-70
2022/03/03 03:15:43;;;;;;;56.28;25.58;;;1.20;99.90;;;;;;5039835;28;20105;-70
2022/03/03 03:18:10;;;;;;;59.95;26.10;;;1.20;99.90;;;;;;5038464;28;20036;-70
2022/03/03 03:20:37;;;;;;;56.90;26.20;;;1.20;99.90;;;;;;5046227;28;20044;-70
2022/03/03 03:23:02;;;;;;;58.72;25.25;;;1.10;99.90;;;;;;5041041;28;20727;-70
2022/03/03 03:25:28;;;;;;;65.30;25.50;;;1.10;99.90;;;;;;5028092;28;20141;-70
2022/03/03 03:27:53;;;;;;;58.53;26.27;;;1.10;99.90;;;;;;5031183;28;20049;-70
2022/03/03 03:30:19;;;;;;;66.27;27.70;;;1.00;99.90;;;;;;5033185;28;20055;-70
2022/03/03 03:32:45;;;;;;;65.70;27.80;;;1.10;99.90;;;;;;5038907;28;20048;-70
2022/03/03 03:35:11;;;;;;;61.13;26.53;;;1.10;99.90;;;;;;5039249;28;20049;-70
2022/03/03 03:37:36;;;;;;;58.47;24.00;;;1.10;99.90;;;;;;5042281;28;20597;-70
2022/03/03 03:40:07;;;;;;;69.33;26.30;;;1.00;99.90;;;;;;5042514;28;20040;-70
2022/03/03 03:42:33;;;;;;;58.60;26.50;;;1.00;99.90;;;;;;5038237;28;20140;-70
2022/03/03 03:44:59;;;;;;;57.90;25.77;;;1.00;99.90;;;;;;5039492;28;20126;-70
2022/03/03 03:47:25;;;;;;;63.73;25.77;;;1.00;99.90;;;;;;5041127;28;20084;-70
2022/03/03 03:49:50;;;;;;;63.70;27.33;;;1.00;99.90;;;;;;5030980;28;20069;-70
2022/03/03 03:52:16;;;;;;;63.27;28.23;;;1.00;99.90;;;;;;5040605;28;20269;-70
2022/03/03 03:54:42;;;;;;;57.53;26.03;;;0.90;99.90;;;;;;5036198;28;20094;-70
2022/03/03 03:57:07;;;;;;;65.60;26.80;;;0.90;99.90;;;;;;5032818;28;20449;-70
2022/03/03 03:59:33;;;;;;;58.90;24.90;;;1.00;99.90;;;;;;5041972;28;20120;-70
2022/03/03 04:01:58;;;;;;;55.37;24.43;;;0.90;99.90;;;;;;5038757;28;20041;-70
2022/03/03 04:04:24;;;;;;;58.90;25.93;;;0.90;99.90;;;;;;5042641;28;20048;-70
2022/03/03 04:06:50;;;;;;;65.30;26.77;;;0.90;99.90;;;;;;5041681;28;20099;-70
2022/03/03 04:09:15;;;;;;;63.83;26.10;;;0.90;99.90;;;;;;5040316;28;20050;-70
2022/03/03 04:11:41;;;;;;;64.10;26.47;;;0.90;99.90;;;;;;5038852;28;20421;-70
2022/03/03 04:14:06;;;;;;;58.43;27.03;;;0.90;99.90;;;;;;5042887;28;20041;-70
2022/03/03 04:16:32;;;;;;;56.50;25.07;;;0.90;99.90;;;;;;5041663;28;20037;-70
2022/03/03 04:18:58;;;;;;;57.90;24.20;;;0.80;99.90;;;;;;5026558;28;20041;-70
2022/03/03 04:21:23;;;;;;;52.93;24.07;;;0.90;99.90;;;;;;5039946;28;20486;-70
2022/03/03 04:23:49;;;;;;;63.07;26.17;;;0.90;99.90;;;;;;5036299;28;20044;-70
2022/03/03 04:26:15;;;;;;;60.40;26.87;;;0.90;99.90;;;;;;5030896;28;20140;-70
2022/03/03 04:28:41;;;;;;;56.17;24.50;;;0.80;99.90;;;;;;5031849;28;20047;-70
2022/03/03 04:31:06;;;;;;;55.73;24.90;;;0.90;99.90;;;;;;5037060;28;20036;-70
2022/03/03 04:33:32;;;;;;;52.30;24.30;;;0.80;99.90;;;;;;5026493;28;20365;-70
2022/03/03 04:35:58;;;;;;;50.43;24.77;;;0.80;99.90;;;;;;5036548;28;20140;-70
2022/03/03 04:38:25;;;;;;;63.10;26.38;;;0.80;99.90;;;;;;5037628;28;20047;-70
2022/03/03 04:40:50;;;;;;;62.70;25.27;;;0.80;99.90;;;;;;5042123;28;20068;-70
2022/03/03 04:43:16;;;;;;;55.90;24.17;;;0.80;99.90;;;;;;5040532;28;20087;-70
2022/03/03 04:45:42;;;;;;;54.07;23.63;;;0.80;99.90;;;;;;5036588;28;20084;-70
2022/03/03 04:48:08;;;;;;;54.42;25.48;;;0.80;99.90;;;;;;5037388;28;20037;-70
2022/03/03 04:50:34;;;;;;;58.72;24.48;;;0.80;99.90;;;;;;5040736;28;20045;-70
2022/03/03 04:53:00;;;;;;;50.57;23.80;;;0.80;99.90;;;;;;5027640;28;20469;-70
2022/03/03 04:55:25;;;;;;;52.60;23.67;;;0.80;99.90;;;;;;5033747;28;20120;-70
2022/03/03 04:57:51;;;;;;;54.90;23.67;;;0.80;99.90;;;;;;5029531;28;20045;-70
2022/03/03 05:00:20;;;;;;;47.70;22.73;;;0.80;99.90;;;;;;5041123;28;20371;-70
2022/03/03 05:02:45;;;;;;;47.28;23.13;;;0.70;99.90;;;;;;5035989;28;20045;-70
2022/03/03 05:05:11;;;;;;;47.13;22.67;;;0.80;99.90;;;;;;5040021;28;20036;-70
2022/03/03 05:07:37;;;;;;;55.57;23.67;;;0.70;99.90;;;;;;5035733;28;20099;-70
2022/03/03 05:10:03;;;;;;;53.10;23.67;;;0.70;99.90;;;;;;5031913;28;20841;-70
2022/03/03 05:12:29;;;;;;;58.42;24.23;;;0.70;99.90;;;;;;5042412;28;20472;-70
2022/03/03 05:14:54;;;;;;;44.10;21.97;;;0.70;99.90;;;;;;5034976;28;20077;-70
2022/03/03 05:17:20;;;;;;;50.90;21.87;;;0.70;99.90;;;;;;5041340;28;20095;-70
2022/03/03 05:19:45;;;;;;;50.63;22.13;;;0.70;99.90;;;;;;5039782;28;20442;-70
2022/03/03 05:22:11;;;;;;;56.00;22.60;;;0.70;99.90;;;;;;5042642;28;20474;-70
2022/03/03 05:24:38;;;;;;;47.50;21.87;;;0.60;99.90;;;;;;5018016;28;20753;-70
2022/03/03 05:27:04;;;;;;;51.00;23.30;;;0.60;99.90;;;;;;5035070;28;20211;-70
2022/03/03 05:29:30;;;;;;;49.28;21.77;;;0.60;99.90;;;;;;5034748;28;20041;-70
2022/03/03 05:31:58;;;;;;;49.13;23.10;;;0.60;99.90;;;;;;5034617;28;20642;-70
2022/03/03 05:34:26;;;;;;;40.25;21.52;;;0.60;99.90;;;;;;5040354;28;20086;-70
2022/03/03 05:36:52;;;;;;;51.33;23.05;;;0.70;99.90;;;;;;5035494;28;20113;-70
2022/03/03 05:39:18;;;;;;;42.13;19.65;;;0.60;99.90;;;;;;5035604;28;20042;-70
2022/03/03 05:41:43;;;;;;;49.30;22.23;;;0.50;99.90;;;;;;5036723;28;20386;-70
2022/03/03 05:44:13;;;;;;;44.77;21.23;;;0.50;99.90;;;;;;5039491;28;20048;-70
2022/03/03 05:46:42;;;;;;;56.58;23.17;;;0.50;99.90;;;;;;5041238;28;20049;-70
2022/03/03 05:49:08;;;;;;;44.95;21.73;;;0.50;99.90;;;;;;5018356;28;20045;-70
2022/03/03 05:51:35;;;;;;;47.22;22.48;;;0.50;99.90;;;;;;5033853;28;20091;-70
2022/03/03 05:54:00;;;;;;;50.15;21.67;;;0.50;99.90;;;;;;5037062;28;20095;-70
2022/03/03 05:56:29;;;;;;;44.83;22.83;;;0.50;99.90;;;;;;5036460;28;20470;-70
2022/03/03 05:59:00;;;;;;;51.58;22.23;;;0.50;99.90;;;;;;5040100;28;20037;-70
2022/03/03 06:01:27;;;;;;;46.55;21.98;;;0.40;99.90;;;;;;5037139;28;20125;-70
2022/03/03 06:03:56;;;;;;;50.13;22.52;;;0.40;99.90;;;;;;5039308;28;20025;-70
2022/03/03 06:06:28;;;;;;;46.80;22.55;;;0.40;99.90;;;;;;5039074;28;20049;-70
2022/03/03 06:09:09;;;;;;;41.30;20.25;;;0.40;99.90;;;;;;5033748;28;20064;-71
2022/03/03 06:11:47;;;;;;;51.42;21.85;;;0.40;99.90;;;;;;5037480;28;20187;-70
2022/03/03 06:14:20;;;;;;;42.65;20.90;;;0.40;99.90;;;;;;5035450;28;20084;-70
2022/03/03 06:16:47;;;;;;;43.45;21.48;;;0.40;99.90;;;;;;5035636;28;20210;-70
2022/03/03 06:19:13;;;;;;;47.97;21.77;;;0.40;99.90;;;;;;5034003;28;20033;-70
2022/03/03 06:21:39;;;;;;;55.03;22.63;;;0.40;99.90;;;;;;5038313;28;20044;-70
2022/03/03 06:24:05;;;;;;;46.60;21.00;;;0.40;99.90;;;;;;5038987;28;20029;-70
2022/03/03 06:26:31;;;;;;;45.88;20.95;;;0.40;99.90;;;;;;5035166;28;20052;-70
2022/03/03 06:28:58;;;;;;;46.47;22.27;;;0.40;99.90;;;;;;5044299;28;20045;-70
2022/03/03 06:31:25;;;;;;;;;;;0.40;99.90;;;;;;5019501;28;20510;-70
2022/03/03 06:33:51;;;;;;;48.30;22.50;;;0.30;99.90;;;;;;5043408;28;19920;-70
2022/03/03 06:36:16;;;;;;;43.93;20.97;;;0.30;99.90;;;;;;5043878;28;20143;-70
2022/03/03 06:38:42;;;;;;;49.40;22.57;;;0.30;99.90;;;;;;5025054;28;20044;-70
2022/03/03 06:41:08;;;;;;;49.33;20.77;;;0.30;99.90;;;;;;5041725;28;20158;-70
2022/03/03 06:43:35;;;;;;;47.70;20.70;;;0.40;99.90;;;;;;5037937;28;20041;-70
2022/03/03 06:46:01;;;;;;;46.38;21.30;;;0.40;99.90;;;;;;5040745;28;20516;-70
2022/03/03 06:48:27;;;;;;;48.33;22.40;;;0.40;99.90;;;;;;5044024;28;20494;-70
2022/03/03 06:50:54;;;;;;;52.77;23.73;;;0.40;99.90;;;;;;5042707;28;20087;-71
2022/03/03 06:53:26;;;;;;;48.83;21.65;;;0.40;99.90;;;;;;5021090;28;20045;-70
2022/03/03 06:56:03;;;;;;;44.95;21.80;;;0.40;99.90;;;;;;5039927;28;20041;-70
2022/03/03 06:58:31;;;;;;;42.47;19.95;;;0.50;99.90;;;;;;5057684;22;20053;-70
2022/03/03 07:00:57;;;;;;;48.47;21.05;;;0.50;99.90;;;;;;5040048;28;20068;-69
2022/03/03 07:03:24;;;;;;;40.45;20.52;;;0.50;99.90;;;;;;5041608;28;20461;-70
2022/03/03 07:05:51;;;;;;;49.13;21.52;;;0.50;99.90;;;;;;5036438;28;20048;-70
2022/03/03 07:08:18;;;;;;;;;;;0.50;99.90;;;;;;5017209;28;20040;-70
2022/03/03 07:10:45;;;;;;;43.67;20.80;;;0.60;99.90;;;;;;5035164;28;19917;-70
2022/03/03 07:13:14;;;;;;;48.10;22.55;;;0.60;99.90;;;;;;5031406;28;20442;-70
2022/03/03 07:15:49;;;;;;;46.17;21.33;;;0.60;99.90;;;;;;5045616;28;20049;-70
2022/03/03 07:18:20;;;;;;;46.83;21.73;;;0.60;99.90;;;;;;5019920;28;20037;-70
2022/03/03 07:21:10;;;;;;;51.15;22.60;;;0.70;99.90;;;;;;5044439;28;20141;-70
2022/03/03 07:23:38;;;;;;;42.53;19.80;;;0.70;99.90;;;;;;5030432;28;20040;-70
2022/03/03 07:26:08;;;;;;;53.45;21.55;;;0.80;99.90;;;;;;5031166;28;20540;-70
2022/03/03 07:28:34;;;;;;;41.30;20.23;;;0.80;99.90;;;;;;5028958;28;20474;-69
2022/03/03 07:31:02;;;;;;;;;;;0.80;99.90;;;;;;5030019;28;20041;-70
2022/03/03 07:33:46;;;;;;;44.13;20.23;;;0.90;99.90;;;;;;5031374;28;19960;-69
2022/03/03 07:36:18;;;;;;;43.75;19.67;;;0.90;99.90;;;;;;5030668;28;20389;-70
2022/03/03 07:38:55;;;;;;;47.00;20.90;;;1.00;99.90;;;;;;5037157;28;20037;-70
2022/03/03 07:41:22;;;;;;;41.30;18.60;;;1.00;99.90;;;;;;5049948;28;20057;-70
2022/03/03 07:43:49;;;;;;;46.08;21.80;;;1.00;99.90;;;;;;5048949;28;20439;-69
2022/03/03 07:46:15;;;;;;;46.85;22.08;;;1.10;99.90;;;;;;5032811;28;20109;-70
2022/03/03 07:48:44;;;;;;;45.80;21.80;;;1.10;99.90;;;;;;5041536;28;20060;-69
2022/03/03 07:51:10;;;;;;;45.10;20.23;;;1.20;99.90;;;;;;5049091;28;20079;-70
2022/03/03 07:53:35;;;;;;;50.87;23.57;;;1.30;99.90;;;;;;5039090;28;20037;-70
2022/03/03 07:56:04;;;;;;;40.97;19.53;;;1.30;99.90;;;;;;5046460;28;20406;-70
2022/03/03 07:58:33;;;;;;;45.15;19.23;;;1.40;99.90;;;;;;5029947;28;20365;-70
2022/03/03 08:01:01;;;;;;;41.75;20.27;;;1.40;99.90;;;;;;5029869;28;20045;-70
2022/03/03 08:03:27;;;;;;;42.75;20.70;;;1.50;99.90;;;;;;5037240;28;20033;-70
2022/03/03 08:05:56;;;;;;;39.87;19.27;;;1.60;99.90;;;;;;5043079;28;20109;-69
2022/03/03 08:08:27;;;;;;;40.65;20.85;;;1.60;99.90;;;;;;5031862;28;20041;-70
2022/03/03 08:11:05;;;;;;;37.40;18.98;;;1.70;99.90;;;;;;5049229;28;20033;-69
2022/03/03 08:13:31;;;;;;;44.70;19.70;;;1.70;99.90;;;;;;5041046;28;20090;-70
2022/03/03 08:15:57;;;;;;;42.80;20.17;;;1.80;99.90;;;;;;5049777;28;20045;-70
2022/03/03 08:18:36;;;;;;;;;;;1.80;99.90;;;;;;5039391;28;20041;-70
2022/03/03 08:21:05;;;;;;;43.63;19.20;;;2.00;99.90;;;;;;5049750;28;20397;-70
2022/03/03 08:23:32;;;;;;;40.08;20.27;;;2.00;99.90;;;;;;5037494;28;20041;-70
2022/03/03 08:26:02;;;;;;;40.33;19.40;;;2.10;99.90;;;;;;5029640;28;20120;-70
2022/03/03 08:28:29;;;;;;;43.92;21.17;;;2.10;99.90;;;;;;5030696;28;20045;-70
2022/03/03 08:31:01;;;;;;;37.40;19.27;;;2.20;99.90;;;;;;5030294;28;20420;-69
2022/03/03 08:33:40;;;;;;;43.92;19.55;;;2.30;99.90;;;;;;5045172;28;20516;-70
2022/03/03 08:36:15;;;;;;;38.05;18.70;;;2.30;99.90;;;;;;5028514;28;20042;-70
2022/03/03 08:38:48;;;;;;;42.80;20.05;;;2.40;99.90;;;;;;5036413;28;20126;-70
2022/03/03 08:41:15;;;;;;;42.35;19.48;;;2.50;99.90;;;;;;5032304;28;20032;-70
2022/03/03 08:43:44;;;;;;;33.92;18.80;;;2.60;99.90;;;;;;5049216;28;20078;-70
2022/03/03 08:46:12;;;;;;;39.25;19.08;;;2.60;99.90;;;;;;5049465;28;20040;-70
2022/03/03 08:48:40;;;;;;;36.20;19.23;;;2.70;99.90;;;;;;5048566;28;20052;-69
2022/03/03 08:51:05;;;;;;;37.78;19.15;;;2.80;99.90;;;;;;5047615;28;20136;-69
2022/03/03 08:53:31;;;;;;;43.63;19.50;;;2.80;99.90;;;;;;5029230;28;20564;-70
2022/03/03 08:56:00;;;;;;;39.87;18.80;;;3.00;99.90;;;;;;5029682;28;20092;-70
2022/03/03 08:58:26;;;;;;;40.88;18.40;;;3.00;99.90;;;;;;5022185;28;20052;-69
2022/03/03 09:00:52;;;;;;;37.00;18.93;;;3.10;99.90;;;;;;5048572;28;20351;-70
2022/03/03 09:03:24;;;;;;;36.67;18.40;;;3.20;99.90;;;;;;5049716;28;20040;-69
2022/03/03 09:05:50;;;;;;;37.60;19.52;;;3.30;99.90;;;;;;5027930;28;20059;-69
2022/03/03 09:08:16;;;;;;;36.30;18.33;;;3.40;99.90;;;;;;5027863;28;20401;-68
2022/03/03 09:10:42;;;;;;;36.85;18.90;;;3.50;99.90;;;;;;5040269;28;20355;-68
2022/03/03 09:13:09;;;;;;;33.77;17.37;;;3.60;99.90;;;;;;5048971;28;20147;-68
2022/03/03 09:15:35;;;;;;;33.97;16.80;;;3.70;99.90;;;;;;5037305;28;20053;-69
2022/03/03 09:18:01;;;;;;;42.25;18.77;;;3.80;99.90;;;;;;5028005;28;20485;-68
2022/03/03 09:20:27;;;;;;;36.92;16.98;;;3.90;99.90;;;;;;5043251;28;20171;-69
2022/03/03 09:22:53;;;;;;;35.70;16.63;;;4.00;99.90;;;;;;5034182;28;20411;-69
2022/03/03 09:25:19;;;;;;;38.58;17.45;;;4.10;99.90;;;;;;5047516;28;20101;-68
2022/03/03 09:27:45;;;;;;;30.95;16.55;;;4.20;99.90;;;;;;5049446;28;20080;-68
2022/03/03 09:30:12;;;;;;;32.80;16.87;;;4.30;99.90;;;;;;5043581;28;20045;-69
2022/03/03 09:32:38;;;;;;;31.13;15.82;;;4.40;99.90;;;;;;5028748;28;20057;-69
2022/03/03 09:35:05;;;;;;;32.85;16.17;;;4.60;99.90;;;;;;5040378;28;20273;-69
2022/03/03 09:37:31;;;;;;;28.70;16.13;;;4.60;99.90;;;;;;5064203;28;20062;-69
2022/03/03 09:39:57;;;;;;;28.67;14.85;;;4.70;99.90;;;;;;5053845;28;20029;-69
2022/03/03 09:42:22;;;;;;;29.87;14.70;;;4.90;99.90;;;;;;5049398;28;20083;-69
2022/03/03 09:44:48;;;;;;;27.67;14.13;;;5.00;99.90;;;;;;5051386;28;20148;-69
2022/03/03 09:47:16;;;;;;;26.37;14.80;;;5.10;99.90;;;;;;5051364;28;20037;-69
2022/03/03 09:49:42;;;;;;;28.27;14.18;;;5.20;99.90;;;;;;5030805;28;20501;-69
2022/03/03 09:52:19;;;;;;;28.00;14.27;;;5.30;99.90;;;;;;5031171;28;20072;-69
2022/03/03 09:54:48;;;;;;;25.80;13.60;;;5.50;99.90;;;;;;5034816;28;20055;-70
2022/03/03 09:57:17;;;;;;;25.23;14.65;;;5.60;99.90;;;;;;5045600;28;20374;-69
2022/03/03 09:59:44;;;;;;;27.45;14.77;;;5.70;99.90;;;;;;5051889;28;20142;-68
2022/03/03 10:02:10;;;;;;;;;;;5.90;99.90;;;;;;5041661;28;20041;-68
2022/03/03 10:04:36;;;;;;;21.55;12.63;;;6.00;94.30;;;;;;5049427;28;19917;-69
2022/03/03 10:07:04;;;;;;;23.97;11.90;;;6.10;98.20;;;;;;5036140;28;20375;-69
2022/03/03 10:09:30;;;;;;;25.75;13.57;;;6.30;97.10;;;;;;5032595;28;20052;-69
2022/03/03 10:12:06;;;;;;;27.77;13.30;;;6.40;94.20;;;;;;5037709;28;20049;-69
2022/03/03 10:14:35;;;;;;;23.30;12.70;;;6.50;91.30;;;;;;5051411;28;20335;-69
2022/03/03 10:17:01;;;;;;;26.98;14.13;;;6.60;91.80;;;;;;5052590;28;20145;-70
2022/03/03 10:19:27;;;;;;;;;;;6.70;92.30;;;;;;5051811;28;20033;-70
2022/03/03 10:21:53;;;;;;;27.00;12.25;;;6.80;83.70;;;;;;5044140;28;19971;-70
2022/03/03 10:24:25;;;;;;;26.90;13.88;;;7.00;87.80;;;;;;5031751;28;20048;-68
2022/03/03 10:26:58;;;;;;;24.17;13.60;;;7.10;89.80;;;;;;5030071;28;20069;-67
2022/03/03 10:29:24;;;;;;;24.33;12.85;;;7.20;90.00;;;;;;5038922;28;20084;-69
2022/03/03 10:31:54;;;;;;;21.58;12.52;;;7.40;84.60;;;;;;5028836;28;20061;-68
2022/03/03 10:34:30;;;;;;;24.23;13.18;;;7.50;82.60;;;;;;5049378;28;20053;-69
2022/03/03 10:36:59;;;;;;;21.73;13.05;;;7.60;80.20;;;;;;5035905;28;20552;-68
2022/03/03 10:39:25;;;;;;;23.60;12.80;;;7.70;81.10;;;;;;5047506;28;20052;-69
2022/03/03 10:41:55;;;;;;;21.42;12.05;;;7.80;81.80;;;;;;5046067;28;20099;-69
2022/03/03 10:44:30;;;;;;;22.65;12.15;;;8.00;77.30;;;;;;5034359;28;20564;-69
2022/03/03 10:47:07;;;;;;;22.08;12.48;;;8.00;76.30;;;;;;5030888;28;20402;-69
2022/03/03 10:49:33;;;;;;;;;;;8.20;75.70;;;;;;5024051;28;20045;-69
2022/03/03 10:52:23;;;;;;;22.13;13.00;;;8.30;71.60;;;;;;5048808;28;19921;-69
2022/03/03 10:55:12;;;;;;;21.90;11.48;;;8.40;75.60;;;;;;5044559;28;20045;-69
2022/03/03 10:57:38;;;;;;;22.70;11.75;;;8.50;74.00;;;;;;5031413;28;20048;-69
2022/03/03 11:00:31;;;;;;;21.35;12.07;;;8.60;73.80;;;;;;5032663;28;20080;-70
2022/03/03 11:02:59;;;;;;;22.75;11.52;;;8.70;70.10;;;;;;5041510;28;20087;-69
2022/03/03 11:05:27;;;;;;;22.38;12.00;;;8.90;71.70;;;;;;5049970;28;20040;-69
2022/03/03 11:07:53;;;;;;;23.10;12.00;;;9.00;71.10;;;;;;5026273;28;20153;-69
2022/03/03 11:10:22;;;;;;;22.75;11.30;;;9.10;70.10;;;;;;5016138;28;20514;-69
2022/03/03 11:12:48;;;;;;;25.23;10.98;;;9.20;70.30;;;;;;5035866;28;20124;-68
2022/03/03 11:15:20;;;;;;;20.30;11.48;;;9.30;70.00;;;;;;5051023;28;20037;-69
2022/03/03 11:17:47;;;;;;;17.25;10.35;;;9.40;69.70;;;;;;5033835;28;20071;-70
2022/03/03 11:20:15;;;;;;;18.15;11.30;;;9.50;68.80;;;;;;5049406;28;20044;-69
2022/03/03 11:22:42;;;;;;;19.88;11.05;;;9.60;67.70;;;;;;5035346;28;20037;-69
2022/03/03 11:25:13;;;;;;;17.83;10.68;;;9.70;68.10;;;;;;5035036;28;20477;-69
2022/03/03 11:27:41;;;;;;;16.38;10.05;;;9.80;67.00;;;;;;5043270;28;20454;-69
2022/03/03 11:30:39;;;;;;;16.05;9.52;;;9.90;66.00;;;;;;5051109;28;20033;-69
2022/03/03 11:33:25;;;;;;;15.73;8.77;;;10.10;62.00;;;;;;5017265;28;20045;-69
2022/03/03 11:35:56;;;;;;;15.95;8.85;;;10.20;62.50;;;;;;5049447;28;20397;-69
2022/03/03 11:38:24;;;;;;;19.92;10.32;;;10.30;63.00;;;;;;5049951;28;20110;-69
2022/03/03 11:40:58;;;;;;;16.85;10.10;;;10.50;64.20;;;;;;5045673;28;20045;-69
2022/03/03 11:43:25;;;;;;;14.90;8.82;;;10.50;63.70;;;;;;5035067;28;20041;-70
2022/03/03 11:45:54;;;;;;;14.48;8.55;;;10.70;62.30;;;;;;5014533;28;20122;-69
2022/03/03 11:48:20;;;;;;;13.82;8.23;;;10.80;62.60;;;;;;5050883;28;20052;-69
2022/03/03 11:50:48;;;;;;;15.48;8.40;;;10.90;63.40;;;;;;5048283;28;20207;-69
2022/03/03 11:53:18;;;;;;;12.73;7.25;;;11.00;63.20;;;;;;5047988;28;20129;-69
2022/03/03 11:55:50;;;;;;;15.35;8.80;;;11.20;62.30;;;;;;5050214;28;20044;-68
2022/03/03 11:58:24;;;;;;;15.60;10.30;;;11.30;62.30;;;;;;5045304;28;20068;-70
2022/03/03 12:01:05;;;;;;;16.17;9.52;;;11.40;62.60;;;;;;5037665;28;20060;-69
2022/03/03 12:03:31;;;;;;;15.70;9.80;;;11.60;60.80;;;;;;5036663;28;20386;-70
2022/03/03 12:06:10;;;;;;;13.55;8.82;;;11.60;61.40;;;;;;5047122;28;20405;-68
2022/03/03 12:08:40;;;;;;;16.65;9.23;;;11.60;60.50;;;;;;5049882;28;20041;-68
2022/03/03 12:11:09;;;;;;;19.17;9.15;;;11.70;60.60;;;;;;5050707;28;20160;-69
2022/03/03 12:13:38;;;;;;;14.75;9.10;;;11.70;59.70;;;;;;5044284;28;20109;-70
2022/03/03 12:16:20;;;;;;;15.15;9.40;;;11.70;59.40;;;;;;5048221;28;20048;-69
2022/03/03 12:18:48;;;;;;;15.98;8.43;;;11.70;59.40;;;;;;5049716;28;20120;-70
2022/03/03 12:21:27;;;;;;;14.68;8.65;;;11.70;58.90;;;;;;5048799;28;20044;-70
2022/03/03 12:24:12;;;;;;;15.38;8.40;;;11.80;58.50;;;;;;5050570;28;20124;-69
2022/03/03 12:27:06;;;;;;;13.98;8.25;;;11.70;57.10;;;;;;5048308;28;20215;-70
2022/03/03 12:29:41;;;;;;;13.25;7.40;;;11.80;57.50;;;;;;5058870;28;20083;-69
2022/03/03 12:32:32;;;;;;;11.82;7.00;;;11.90;58.70;;;;;;5065441;28;20796;-69
2022/03/03 12:35:09;;;;;;;16.52;7.85;;;11.80;55.90;;;;;;5063607;28;20040;-69
2022/03/03 12:37:46;;;;;;;20.20;11.05;;;11.90;58.60;;;;;;5051608;28;20239;-70
2022/03/03 12:40:19;;;;;;;19.80;11.73;;;12.00;59.20;;;;;;5032146;28;20041;-69
2022/03/03 12:42:46;;;;;;;21.25;11.80;;;12.00;59.90;;;;;;5043589;28;20041;-70
2022/03/03 12:45:19;;;;;;;20.73;11.00;;;12.20;60.50;;;;;;5049118;28;20037;-69
2022/03/03 12:47:53;;;;;;;18.95;11.13;;;12.20;59.70;;;;;;5050298;28;20037;-70
2022/03/03 12:50:25;;;;;;;17.13;10.63;;;12.20;58.50;;;;;;5049366;28;20094;-69
2022/03/03 12:53:18;;;;;;;14.88;9.60;;;12.10;58.70;;;;;;5049956;28;20076;-70